Weather at Las Américas International Airport

Public forecast

Using degrees Celsius for public forecast. Weather courtesy of forecast.io.

Current aviation weather report (METAR) for Las Américas International Airport

Retrieved 2020/12/04 04:00 UTC (6 minutes ago):

MDSD 040400Z 02004KT 9999 FEW016 SCT300 22/21 Q1016

Aviation forecast (TAF) for Las Américas International Airport

Retrieved 2020-12-04 00:28 UTC (4 hours ago):

TAF MDSD 032200Z 0400/0500 04006KT 9999 SCT016 SCT300 PROB30 0400/0406 7000-RA SCT015 BKN070